Time,TemperatureF,DewpointF,PressureIn,WindDirection,WindDirectionDegrees,WindSpeedMPH,WindSpeedGustMPH,Humidity,HourlyPrecipIn,Conditions,Clouds,dailyrainin,SoftwareType,DateUTC
2017-09-20 00:02:00,63.9,62.4,29.90,SE,133,0.0,0.0,95,0.00,RA,,0.00,WeatherDisplay:10.37,2017-09-20 04:02:00,
2017-09-20 00:07:00,63.4,62.2,29.90,SE,133,0.0,0.0,96,0.00,RA,,0.00,WeatherDisplay:10.37,2017-09-20 04:07:00,
2017-09-20 00:12:00,63.2,62.0,29.90,SE,133,0.0,0.0,96,0.00,CLR,,0.00,WeatherDisplay:10.37,2017-09-20 04:12:00,
2017-09-20 00:17:00,63.3,62.4,29.90,SE,133,0.0,0.0,97,0.00,CLR,,0.00,WeatherDisplay:10.37,2017-09-20 04:17:00,
2017-09-20 00:22:00,63.3,62.4,29.90,SE,133,0.0,0.0,97,0.00,CLR,,0.00,WeatherDisplay:10.37,2017-09-20 04:22:00,
2017-09-20 00:27:00,63.6,62.7,29.90,SE,132,0.0,0.0,97,0.00,CLR,,0.00,WeatherDisplay:10.37,2017-09-20 04:27:00,
2017-09-20 00:32:00,64.0,63.4,29.90,SE,133,0.0,0.0,98,0.00,CLR,,0.00,WeatherDisplay:10.37,2017-09-20 04:32:00,
2017-09-20 00:37:00,63.8,62.9,29.91,SE,133,0.0,0.0,97,0.00,CLR,,0.00,WeatherDisplay:10.37,2017-09-20 04:37:00,
2017-09-20 00:42:00,63.4,62.2,29.91,SE,133,0.0,0.0,96,0.00,CLR,,0.00,WeatherDisplay:10.37,2017-09-20 04:42:00,
2017-09-20 00:47:00,63.4,62.5,29.91,SE,133,0.0,0.0,97,0.00,CLR,,0.00,WeatherDisplay:10.37,2017-09-20 04:47:00,
2017-09-20 00:52:00,63.5,62.6,29.90,SE,133,0.0,0.0,97,0.00,CLR,,0.00,WeatherDisplay:10.37,2017-09-20 04:52:00,
2017-09-20 00:57:00,63.5,62.6,29.90,SE,133,0.0,0.0,97,0.00,CLR,,0.00,WeatherDisplay:10.37,2017-09-20 04:57:00,
2017-09-20 01:02:00,63.1,62.2,29.90,SE,133,0.0,0.0,97,0.00,CLR,,0.00,WeatherDisplay:10.37,2017-09-20 05:02:00,
2017-09-20 01:07:00,62.9,62.0,29.91,SE,133,0.0,0.0,97,0.00,CLR,,0.00,WeatherDisplay:10.37,2017-09-20 05:07:00,
2017-09-20 01:12:00,62.8,61.9,29.91,SE,133,0.0,0.0,97,0.00,CLR,,0.00,WeatherDisplay:10.37,2017-09-20 05:12:00,
2017-09-20 01:17:00,62.7,61.8,29.91,SE,133,0.0,0.0,97,0.00,CLR,,0.00,WeatherDisplay:10.37,2017-09-20 05:17:00,
2017-09-20 01:22:00,62.8,61.9,29.91,SE,133,0.0,0.0,97,0.00,CLR,,0.00,WeatherDisplay:10.37,2017-09-20 05:22:00,
2017-09-20 01:27:00,63.2,62.6,29.91,SE,133,0.0,0.0,98,0.00,CLR,,0.00,WeatherDisplay:10.37,2017-09-20 05:27:00,
2017-09-20 01:28:00,63.2,62.6,29.91,SE,133,0.0,0.0,98,0.00,CLR,,0.00,WeatherDisplay:10.37,2017-09-20 05:28:00,
2017-09-20 01:33:00,63.2,62.3,29.90,SE,133,0.0,0.0,97,0.00,CLR,,0.00,WeatherDisplay:10.37,2017-09-20 05:33:00,
2017-09-20 01:38:00,63.0,62.1,29.91,SE,133,0.0,0.0,97,0.00,CLR,,0.00,WeatherDisplay:10.37,2017-09-20 05:38:00,
2017-09-20 01:43:00,62.6,61.7,29.91,SE,133,0.0,0.0,97,0.00,CLR,,0.00,WeatherDisplay:10.37,2017-09-20 05:43:00,
2017-09-20 01:48:00,62.7,61.8,29.91,SE,133,0.0,0.0,97,0.00,CLR,,0.00,WeatherDisplay:10.37,2017-09-20 05:48:00,
2017-09-20 01:53:00,62.7,61.8,29.91,SE,133,0.0,0.0,97,0.00,CLR,,0.00,WeatherDisplay:10.37,2017-09-20 05:53:00,
2017-09-20 01:58:00,62.7,61.8,29.91,SE,133,0.0,0.0,97,0.00,CLR,,0.00,WeatherDisplay:10.37,2017-09-20 05:58:00,
2017-09-20 02:03:00,62.4,61.5,29.91,SE,133,0.0,0.0,97,0.00,CLR,,0.00,WeatherDisplay:10.37,2017-09-20 06:03:00,
2017-09-20 02:08:00,62.4,61.5,29.91,SE,133,0.0,0.0,97,0.00,CLR,,0.00,WeatherDisplay:10.37,2017-09-20 06:08:00,
2017-09-20 02:13:00,62.5,61.6,29.90,SE,133,0.0,0.0,97,0.00,CLR,,0.00,WeatherDisplay:10.37,2017-09-20 06:13:00,
2017-09-20 02:18:00,62.6,61.7,29.90,SE,133,0.0,0.0,97,0.00,CLR,,0.00,WeatherDisplay:10.37,2017-09-20 06:18:00,
2017-09-20 02:23:00,62.5,61.6,29.90,SE,133,0.0,0.0,97,0.00,CLR,,0.00,WeatherDisplay:10.37,2017-09-20 06:23:00,
2017-09-20 02:28:00,62.8,62.2,29.90,SE,133,0.0,0.0,98,0.00,CLR,,0.00,WeatherDisplay:10.37,2017-09-20 06:28:00,
2017-09-20 02:33:00,63.3,62.7,29.90,SE,133,0.0,0.0,98,0.00,CLR,,0.00,WeatherDisplay:10.37,2017-09-20 06:33:00,
2017-09-20 02:38:00,63.3,62.7,29.90,SE,133,0.0,0.0,98,0.00,CLR,,0.00,WeatherDisplay:10.37,2017-09-20 06:38:00,
2017-09-20 02:43:00,63.0,62.1,29.90,SE,133,0.0,0.0,97,0.00,CLR,,0.00,WeatherDisplay:10.37,2017-09-20 06:43:00,
2017-09-20 02:48:00,62.9,62.0,29.90,SE,133,0.0,0.0,97,0.00,CLR,,0.00,WeatherDisplay:10.37,2017-09-20 06:48:00,
2017-09-20 02:53:00,62.8,61.9,29.90,SE,133,0.0,0.0,97,0.00,CLR,,0.00,WeatherDisplay:10.37,2017-09-20 06:53:00,
2017-09-20 02:58:00,63.2,62.6,29.90,SE,133,0.0,0.0,98,0.00,CLR,,0.00,WeatherDisplay:10.37,2017-09-20 06:58:00,
2017-09-20 03:03:00,63.5,62.9,29.89,SE,133,0.0,0.0,98,0.00,CLR,,0.00,WeatherDisplay:10.37,2017-09-20 07:03:00,
2017-09-20 03:08:00,63.3,62.7,29.90,SE,133,0.0,0.0,98,0.00,CLR,,0.00,WeatherDisplay:10.37,2017-09-20 07:08:00,
2017-09-20 03:13:00,63.0,62.1,29.89,SE,133,0.0,0.0,97,0.00,CLR,,0.00,WeatherDisplay:10.37,2017-09-20 07:13:00,
2017-09-20 03:18:00,62.8,61.9,29.89,SE,133,0.0,0.0,97,0.00,CLR,,0.00,WeatherDisplay:10.37,2017-09-20 07:18:00,
2017-09-20 03:23:00,62.4,61.5,29.89,SE,133,0.0,0.0,97,0.00,CLR,,0.00,WeatherDisplay:10.37,2017-09-20 07:23:00,
2017-09-20 03:28:00,62.3,61.4,29.90,SE,133,0.0,0.0,97,0.00,CLR,,0.00,WeatherDisplay:10.37,2017-09-20 07:28:00,
2017-09-20 03:33:00,62.3,61.4,29.89,SE,133,0.0,0.0,97,0.00,CLR,,0.00,WeatherDisplay:10.37,2017-09-20 07:33:00,
2017-09-20 03:38:00,62.2,61.3,29.89,SE,133,0.0,0.0,97,0.00,CLR,,0.00,WeatherDisplay:10.37,2017-09-20 07:38:00,
2017-09-20 03:44:00,62.5,61.9,29.89,SE,133,0.0,0.0,98,0.00,CLR,,0.00,WeatherDisplay:10.37,2017-09-20 07:44:00,
2017-09-20 03:49:00,62.4,61.8,29.89,SE,133,0.0,0.0,98,0.00,CLR,,0.00,WeatherDisplay:10.37,2017-09-20 07:49:00,
2017-09-20 03:54:00,62.4,61.5,29.89,SE,133,0.0,0.0,97,0.00,CLR,,0.00,WeatherDisplay:10.37,2017-09-20 07:54:00,
2017-09-20 03:59:00,62.5,61.9,29.89,SE,133,0.0,0.0,98,0.00,CLR,,0.00,WeatherDisplay:10.37,2017-09-20 07:59:00,
2017-09-20 04:04:00,62.2,61.3,29.89,SE,133,0.0,0.0,97,0.00,CLR,,0.00,WeatherDisplay:10.37,2017-09-20 08:04:00,
2017-09-20 04:09:00,62.1,61.2,29.89,SE,133,0.0,0.0,97,0.00,CLR,,0.00,WeatherDisplay:10.37,2017-09-20 08:09:00,
2017-09-20 04:14:00,62.4,61.8,29.89,SE,133,0.0,0.0,98,0.00,CLR,,0.00,WeatherDisplay:10.37,2017-09-20 08:14:00,
2017-09-20 04:19:00,63.0,62.4,29.90,SE,133,0.0,0.0,98,0.00,CLR,,0.00,WeatherDisplay:10.37,2017-09-20 08:19:00,
2017-09-20 04:24:00,63.2,62.6,29.90,SE,133,0.0,0.0,98,0.00,CLR,,0.00,WeatherDisplay:10.37,2017-09-20 08:24:00,
2017-09-20 04:29:00,63.3,62.7,29.90,SE,133,0.0,0.0,98,0.00,CLR,,0.00,WeatherDisplay:10.37,2017-09-20 08:29:00,
2017-09-20 04:34:00,63.2,62.6,29.90,SE,133,0.0,0.0,98,0.00,CLR,,0.00,WeatherDisplay:10.37,2017-09-20 08:34:00,
2017-09-20 04:39:00,63.3,62.7,29.90,SE,133,0.0,0.0,98,0.00,CLR,,0.00,WeatherDisplay:10.37,2017-09-20 08:39:00,
2017-09-20 04:44:00,63.2,62.6,29.90,SE,133,0.0,0.0,98,0.00,CLR,,0.00,WeatherDisplay:10.37,2017-09-20 08:44:00,
2017-09-20 04:54:00,63.5,62.9,29.90,SE,133,0.0,0.0,98,0.00,CLR,,0.00,WeatherDisplay:10.37,2017-09-20 08:54:00,
2017-09-20 04:59:00,63.4,62.8,29.90,SE,133,0.0,0.0,98,0.00,CLR,,0.00,WeatherDisplay:10.37,2017-09-20 08:59:00,
2017-09-20 05:04:00,63.1,62.2,29.90,SE,133,0.0,0.0,97,0.00,CLR,,0.00,WeatherDisplay:10.37,2017-09-20 09:04:00,
2017-09-20 05:09:00,62.8,61.9,29.90,SE,133,0.0,0.0,97,0.00,CLR,,0.00,WeatherDisplay:10.37,2017-09-20 09:09:00,
2017-09-20 05:14:00,62.6,61.7,29.91,SE,133,0.0,0.0,97,0.00,CLR,,0.00,WeatherDisplay:10.37,2017-09-20 09:14:00,
2017-09-20 05:19:00,62.5,61.6,29.91,SE,133,0.0,0.0,97,0.00,CLR,,0.00,WeatherDisplay:10.37,2017-09-20 09:19:00,
2017-09-20 05:20:00,62.4,61.5,29.91,SE,133,0.0,0.0,97,0.00,CLR,,0.00,WeatherDisplay:10.37,2017-09-20 09:20:00,
2017-09-20 05:25:00,62.5,61.9,29.91,SE,133,0.0,0.0,98,0.00,CLR,,0.00,WeatherDisplay:10.37,2017-09-20 09:25:00,
2017-09-20 05:30:00,62.5,61.9,29.91,SE,133,0.0,0.0,98,0.00,CLR,CLR,0.00,WeatherDisplay:10.37,2017-09-20 09:30:00,
2017-09-20 05:35:00,62.4,61.8,29.91,SE,133,0.0,0.0,98,0.00,CLR,,0.00,WeatherDisplay:10.37,2017-09-20 09:35:00,
2017-09-20 05:40:00,62.7,62.1,29.92,SE,133,0.0,0.0,98,0.00,CLR,,0.00,WeatherDisplay:10.37,2017-09-20 09:40:00,
2017-09-20 05:45:00,62.8,62.2,29.92,SE,133,0.0,0.0,98,0.00,CLR,,0.00,WeatherDisplay:10.37,2017-09-20 09:45:00,
2017-09-20 05:50:00,63.0,62.4,29.92,SE,133,0.0,0.0,98,0.00,CLR,CLR,0.00,WeatherDisplay:10.37,2017-09-20 09:50:00,
2017-09-20 05:55:00,63.3,62.7,29.92,SE,133,0.0,0.0,98,0.00,CLR,,0.00,WeatherDisplay:10.37,2017-09-20 09:55:00,
2017-09-20 06:00:00,63.4,62.8,29.92,SE,132,0.0,0.0,98,0.00,CLR,,0.00,WeatherDisplay:10.37,2017-09-20 10:00:00,
2017-09-20 06:05:00,63.3,62.7,29.92,SE,133,0.0,0.0,98,0.00,CLR,,0.00,WeatherDisplay:10.37,2017-09-20 10:05:00,
2017-09-20 06:10:00,62.9,62.3,29.92,SE,133,0.0,0.0,98,0.00,CLR,,0.00,WeatherDisplay:10.37,2017-09-20 10:10:00,
2017-09-20 06:15:00,62.7,62.1,29.92,SE,133,0.0,0.0,98,0.00,CLR,,0.00,WeatherDisplay:10.37,2017-09-20 10:15:00,
2017-09-20 06:20:00,62.9,62.3,29.93,SE,133,0.0,0.0,98,0.00,CLR,,0.00,WeatherDisplay:10.37,2017-09-20 10:20:00,
2017-09-20 06:25:00,63.0,62.4,29.93,SE,133,0.0,0.0,98,0.00,CLR,,0.00,WeatherDisplay:10.37,2017-09-20 10:25:00,
2017-09-20 06:30:00,63.1,62.5,29.93,SE,133,0.0,0.0,98,0.00,CLR,,0.00,WeatherDisplay:10.37,2017-09-20 10:30:00,
2017-09-20 06:35:00,63.0,62.4,29.93,SE,133,0.0,0.0,98,0.00,CLR,,0.00,WeatherDisplay:10.37,2017-09-20 10:35:00,
2017-09-20 06:40:00,62.6,61.7,29.93,SE,133,0.0,0.0,97,0.00,CLR,,0.00,WeatherDisplay:10.37,2017-09-20 10:40:00,
2017-09-20 06:45:00,62.3,61.4,29.93,SE,133,0.0,0.0,97,0.00,CLR,,0.00,WeatherDisplay:10.37,2017-09-20 10:45:00,
2017-09-20 06:50:00,62.3,61.7,29.94,SE,133,0.0,0.0,98,0.00,CLR,,0.00,WeatherDisplay:10.37,2017-09-20 10:50:00,
2017-09-20 06:55:00,62.3,61.7,29.94,SE,133,0.0,0.0,98,0.00,CLR,,0.00,WeatherDisplay:10.37,2017-09-20 10:55:00,
2017-09-20 07:00:00,62.5,61.9,29.94,SE,133,0.0,0.0,98,0.00,CLR,,0.00,WeatherDisplay:10.37,2017-09-20 11:00:00,
2017-09-20 07:05:00,62.7,62.1,29.94,SE,133,0.0,0.0,98,0.00,CLR,,0.00,WeatherDisplay:10.37,2017-09-20 11:05:00,
2017-09-20 07:10:00,62.7,62.1,29.94,SE,133,0.0,0.0,98,0.00,CLR,,0.00,WeatherDisplay:10.37,2017-09-20 11:10:00,
2017-09-20 07:15:00,62.9,62.3,29.94,SE,133,0.0,0.0,98,0.00,CLR,,0.00,WeatherDisplay:10.37,2017-09-20 11:15:00,
2017-09-20 07:20:00,63.0,62.4,29.95,SE,133,0.0,0.0,98,0.00,CLR,,0.00,WeatherDisplay:10.37,2017-09-20 11:20:00,
2017-09-20 07:25:00,63.0,62.4,29.95,SE,133,0.0,0.0,98,0.00,CLR,,0.00,WeatherDisplay:10.37,2017-09-20 11:25:00,
2017-09-20 07:30:00,62.8,62.2,29.95,SE,133,0.0,0.0,98,0.00,CLR,,0.00,WeatherDisplay:10.37,2017-09-20 11:30:00,
2017-09-20 07:35:00,62.9,62.3,29.95,SE,133,0.0,0.0,98,0.00,CLR,,0.01,WeatherDisplay:10.37,2017-09-20 11:35:00,
2017-09-20 07:40:00,62.9,62.3,29.95,SE,133,0.0,0.0,98,0.01,RA,,0.01,WeatherDisplay:10.37,2017-09-20 11:40:00,
2017-09-20 07:45:00,62.9,62.3,29.95,SE,133,0.0,0.0,98,0.01,RA,,0.01,WeatherDisplay:10.37,2017-09-20 11:45:00,
2017-09-20 07:50:00,62.7,62.1,29.96,SE,132,0.0,0.0,98,0.01,CLR,,0.01,WeatherDisplay:10.37,2017-09-20 11:50:00,
2017-09-20 07:55:00,62.5,61.9,29.96,SE,133,0.0,0.0,98,0.01,CLR,,0.01,WeatherDisplay:10.37,2017-09-20 11:55:00,
2017-09-20 08:00:00,62.7,62.1,29.96,SE,133,0.0,0.0,98,0.01,CLR,,0.01,WeatherDisplay:10.37,2017-09-20 12:00:00,
2017-09-20 08:05:00,63.0,62.4,29.96,SE,133,0.0,0.0,98,0.01,CLR,,0.01,WeatherDisplay:10.37,2017-09-20 12:05:00,
2017-09-20 08:10:00,63.2,62.6,29.96,SE,133,0.0,0.0,98,0.01,CLR,,0.01,WeatherDisplay:10.37,2017-09-20 12:10:00,
2017-09-20 08:15:00,63.2,62.6,29.96,SE,133,0.0,0.0,98,0.01,CLR,,0.01,WeatherDisplay:10.37,2017-09-20 12:15:00,
2017-09-20 08:20:00,63.4,62.8,29.96,SE,133,0.0,0.0,98,0.01,CLR,,0.01,WeatherDisplay:10.37,2017-09-20 12:20:00,
2017-09-20 08:25:00,63.5,62.9,29.96,SE,133,0.0,0.0,98,0.01,CLR,,0.01,WeatherDisplay:10.37,2017-09-20 12:25:00,
2017-09-20 08:26:00,63.6,63.0,29.96,SE,133,0.0,0.0,98,0.01,CLR,,0.01,WeatherDisplay:10.37,2017-09-20 12:26:00,
2017-09-20 08:31:00,64.1,63.5,29.96,SE,133,0.0,0.0,98,0.01,CLR,,0.01,WeatherDisplay:10.37,2017-09-20 12:31:00,
2017-09-20 08:36:00,64.7,64.4,29.96,SSE,160,3.5,3.5,99,0.00,CLR,,0.01,WeatherDisplay:10.37,2017-09-20 12:36:00,
2017-09-20 08:41:00,65.2,64.6,29.96,SSE,152,3.5,3.5,98,0.00,CLR,,0.01,WeatherDisplay:10.37,2017-09-20 12:41:00,
2017-09-20 08:46:00,65.6,65.3,29.96,SE,134,2.3,2.3,99,0.00,CLR,,0.01,WeatherDisplay:10.37,2017-09-20 12:46:00,
2017-09-20 08:51:00,66.1,65.8,29.96,SE,144,3.5,3.5,99,0.00,CLR,,0.01,WeatherDisplay:10.37,2017-09-20 12:51:00,
2017-09-20 08:52:00,66.2,65.9,29.96,SSE,155,3.5,3.5,99,0.00,CLR,,0.01,WeatherDisplay:10.37,2017-09-20 12:52:00,
2017-09-20 08:57:00,66.5,65.9,29.96,SSE,155,2.3,2.3,98,0.00,CLR,,0.01,WeatherDisplay:10.37,2017-09-20 12:57:00,
2017-09-20 09:02:00,67.0,66.7,29.96,SSE,158,2.0,2.0,99,0.00,CLR,,0.01,WeatherDisplay:10.37,2017-09-20 13:02:00,
2017-09-20 09:07:00,67.3,67.0,29.96,SSE,165,5.8,5.8,99,0.00,CLR,,0.01,WeatherDisplay:10.37,2017-09-20 13:07:00,
2017-09-20 09:12:00,67.5,67.2,29.96,South,171,5.0,5.0,99,0.00,CLR,,0.01,WeatherDisplay:10.37,2017-09-20 13:12:00,
2017-09-20 09:17:00,67.9,67.3,29.96,South,171,3.5,3.5,98,0.00,CLR,,0.01,WeatherDisplay:10.37,2017-09-20 13:17:00,
2017-09-20 09:22:00,68.4,67.8,29.96,South,179,4.6,4.6,98,0.00,CLR,,0.01,WeatherDisplay:10.37,2017-09-20 13:22:00,
2017-09-20 09:27:00,68.4,67.8,29.97,South,188,5.8,5.8,98,0.00,CLR,,0.01,WeatherDisplay:10.37,2017-09-20 13:27:00,
2017-09-20 09:32:00,68.6,68.3,29.97,South,170,4.6,4.6,99,0.00,CLR,,0.01,WeatherDisplay:10.37,2017-09-20 13:32:00,
2017-09-20 09:37:00,68.7,68.1,29.97,SSE,157,5.8,5.8,98,0.00,CLR,,0.01,WeatherDisplay:10.37,2017-09-20 13:37:00,
2017-09-20 09:42:00,68.7,68.1,29.97,SSE,155,4.6,4.6,98,0.00,CLR,,0.01,WeatherDisplay:10.37,2017-09-20 13:42:00,
2017-09-20 09:47:00,69.0,68.4,29.97,SE,141,6.9,6.9,98,0.00,CLR,,0.01,WeatherDisplay:10.37,2017-09-20 13:47:00,
2017-09-20 09:52:00,69.3,68.7,29.97,SSW,192,5.8,5.8,98,0.00,CLR,,0.01,WeatherDisplay:10.37,2017-09-20 13:52:00,
2017-09-20 09:57:00,69.7,69.1,29.97,SSE,167,5.0,5.0,98,0.00,CLR,,0.01,WeatherDisplay:10.37,2017-09-20 13:57:00,
2017-09-20 10:02:00,70.1,69.5,29.97,SSE,167,3.5,3.5,98,0.00,CLR,,0.01,WeatherDisplay:10.37,2017-09-20 14:02:00,
2017-09-20 10:07:00,70.6,70.0,29.97,South,169,4.6,4.6,98,0.00,CLR,,0.01,WeatherDisplay:10.37,2017-09-20 14:07:00,
2017-09-20 10:12:00,70.9,70.3,29.97,South,189,4.6,4.6,98,0.00,CLR,,0.01,WeatherDisplay:10.37,2017-09-20 14:12:00,
2017-09-20 10:17:00,71.2,70.6,29.97,SSE,163,7.0,7.0,98,0.00,CLR,,0.01,WeatherDisplay:10.37,2017-09-20 14:17:00,
2017-09-20 10:22:00,71.6,71.0,29.97,SW,217,6.9,6.9,98,0.00,CLR,,0.01,WeatherDisplay:10.37,2017-09-20 14:22:00,
2017-09-20 10:27:00,72.2,71.6,29.97,South,174,7.0,7.0,98,0.00,CLR,,0.01,WeatherDisplay:10.37,2017-09-20 14:27:00,
2017-09-20 10:32:00,72.7,71.8,29.97,South,175,5.8,5.8,97,0.00,CLR,,0.01,WeatherDisplay:10.37,2017-09-20 14:32:00,
2017-09-20 10:37:00,73.2,72.0,29.97,SSW,197,8.1,8.1,96,0.00,CLR,,0.01,WeatherDisplay:10.37,2017-09-20 14:37:00,
2017-09-20 10:42:00,73.7,71.9,29.97,SSW,198,8.1,8.1,94,0.00,CLR,,0.01,WeatherDisplay:10.37,2017-09-20 14:42:00,
2017-09-20 10:47:00,74.4,72.2,29.97,South,187,8.1,8.1,93,0.00,CLR,,0.01,WeatherDisplay:10.37,2017-09-20 14:47:00,
2017-09-20 10:52:00,75.0,72.2,29.96,South,184,7.0,7.0,91,0.00,CLR,,0.01,WeatherDisplay:10.37,2017-09-20 14:52:00,
2017-09-20 10:57:00,75.7,72.2,29.96,SSW,204,5.0,5.0,89,0.00,CLR,,0.01,WeatherDisplay:10.37,2017-09-20 14:57:00,
2017-09-20 11:02:00,76.1,71.9,29.96,SSW,199,8.1,8.1,87,0.00,CLR,,0.01,WeatherDisplay:10.37,2017-09-20 15:02:00,
2017-09-20 11:07:00,76.7,72.2,29.96,SSW,204,4.6,4.6,86,0.00,CLR,,0.01,WeatherDisplay:10.37,2017-09-20 15:07:00,
2017-09-20 11:12:00,77.5,73.0,29.96,SSW,198,6.9,6.9,86,0.00,CLR,,0.01,WeatherDisplay:10.37,2017-09-20 15:12:00,
2017-09-20 11:17:00,77.9,72.7,29.96,SSW,193,6.9,6.9,84,0.00,CLR,,0.01,WeatherDisplay:10.37,2017-09-20 15:17:00,
2017-09-20 11:22:00,78.1,72.9,29.96,SSW,211,7.0,7.0,84,0.00,CLR,,0.01,WeatherDisplay:10.37,2017-09-20 15:22:00,
2017-09-20 11:27:00,78.6,73.0,29.96,SW,227,4.6,4.6,83,0.00,CLR,,0.01,WeatherDisplay:10.37,2017-09-20 15:27:00,
2017-09-20 11:32:00,79.1,73.1,29.96,SSE,165,4.6,4.6,82,0.00,CLR,,0.01,WeatherDisplay:10.37,2017-09-20 15:32:00,
2017-09-20 11:37:00,79.6,73.3,29.96,SSW,197,6.9,6.9,81,0.00,CLR,,0.01,WeatherDisplay:10.37,2017-09-20 15:37:00,
2017-09-20 11:42:00,80.2,73.5,29.96,SW,236,5.8,5.8,80,0.00,CLR,,0.01,WeatherDisplay:10.37,2017-09-20 15:42:00,
2017-09-20 11:47:00,80.8,73.3,29.96,SSE,151,6.9,6.9,78,0.00,CLR,,0.01,WeatherDisplay:10.37,2017-09-20 15:47:00,
2017-09-20 11:52:00,81.1,73.2,29.96,South,169,7.0,7.0,77,0.00,CLR,,0.01,WeatherDisplay:10.37,2017-09-20 15:52:00,
2017-09-20 11:57:00,81.4,73.5,29.96,SW,232,6.9,6.9,77,0.00,CLR,,0.01,WeatherDisplay:10.37,2017-09-20 15:57:00,
2017-09-20 12:02:00,81.6,73.3,29.95,SSW,204,9.2,9.2,76,0.00,CLR,,0.01,WeatherDisplay:10.37,2017-09-20 16:02:00,
2017-09-20 12:07:00,82.0,72.9,29.95,SSE,159,9.2,9.2,74,0.00,CLR,,0.01,WeatherDisplay:10.37,2017-09-20 16:07:00,
2017-09-20 12:12:00,82.2,73.1,29.95,South,174,8.1,8.1,74,0.00,CLR,,0.01,WeatherDisplay:10.37,2017-09-20 16:12:00,
2017-09-20 12:17:00,82.8,72.4,29.95,SW,223,10.4,10.4,71,0.00,CLR,,0.01,WeatherDisplay:10.37,2017-09-20 16:17:00,
2017-09-20 12:22:00,82.9,72.9,29.95,South,184,6.9,6.9,72,0.00,CLR,,0.01,WeatherDisplay:10.37,2017-09-20 16:22:00,
2017-09-20 12:27:00,83.4,72.6,29.95,SW,215,10.4,10.4,70,0.00,CLR,,0.01,WeatherDisplay:10.37,2017-09-20 16:27:00,
2017-09-20 12:32:00,83.3,72.9,29.95,SW,234,11.5,11.5,71,0.00,CLR,,0.01,WeatherDisplay:10.37,2017-09-20 16:32:00,
2017-09-20 12:37:00,83.3,72.1,29.95,South,176,8.1,8.1,69,0.00,CLR,,0.01,WeatherDisplay:10.37,2017-09-20 16:37:00,
2017-09-20 12:42:00,83.7,72.4,29.95,SSW,192,11.5,11.5,69,0.00,CLR,,0.01,WeatherDisplay:10.37,2017-09-20 16:42:00,
2017-09-20 12:47:00,83.9,72.2,29.95,South,190,10.4,10.4,68,0.00,CLR,,0.01,WeatherDisplay:10.37,2017-09-20 16:47:00,
2017-09-20 12:52:00,84.2,71.6,29.94,South,190,10.4,10.4,66,0.00,CLR,,0.01,WeatherDisplay:10.37,2017-09-20 16:52:00,
2017-09-20 12:57:00,84.3,71.7,29.95,SSW,207,11.5,11.5,66,0.00,CLR,,0.01,WeatherDisplay:10.37,2017-09-20 16:57:00,
2017-09-20 13:02:00,84.6,72.0,29.94,SSE,165,11.5,11.5,66,0.00,CLR,,0.01,WeatherDisplay:10.37,2017-09-20 17:02:00,
2017-09-20 13:07:00,84.9,70.9,29.94,South,191,10.4,10.4,63,0.00,CLR,,0.01,WeatherDisplay:10.37,2017-09-20 17:07:00,
2017-09-20 13:12:00,85.1,72.5,29.94,South,171,9.2,9.2,66,0.00,CLR,,0.01,WeatherDisplay:10.37,2017-09-20 17:12:00,
2017-09-20 13:17:00,85.4,72.3,29.94,SSW,196,10.4,10.4,65,0.00,CLR,,0.01,WeatherDisplay:10.37,2017-09-20 17:17:00,
2017-09-20 13:22:00,85.4,72.3,29.94,South,191,8.1,8.1,65,0.00,CLR,,0.01,WeatherDisplay:10.37,2017-09-20 17:22:00,
2017-09-20 13:27:00,85.2,72.1,29.94,SSW,198,8.0,8.0,65,0.00,CLR,,0.01,WeatherDisplay:10.37,2017-09-20 17:27:00,
2017-09-20 13:32:00,85.7,71.7,29.94,SW,234,9.2,9.2,63,0.00,CLR,,0.01,WeatherDisplay:10.37,2017-09-20 17:32:00,
2017-09-20 13:37:00,86.0,72.4,29.94,SSE,166,10.4,10.4,64,0.00,CLR,,0.01,WeatherDisplay:10.37,2017-09-20 17:37:00,
2017-09-20 13:42:00,85.9,72.3,29.94,SSW,200,11.5,11.5,64,0.00,CLR,,0.01,WeatherDisplay:10.37,2017-09-20 17:42:00,
2017-09-20 13:47:00,86.0,72.4,29.93,South,175,12.7,12.7,64,0.00,CLR,,0.01,WeatherDisplay:10.37,2017-09-20 17:47:00,
2017-09-20 13:52:00,86.8,72.7,29.94,South,181,9.2,9.2,63,0.00,CLR,,0.01,WeatherDisplay:10.37,2017-09-20 17:52:00,
2017-09-20 13:57:00,86.8,72.2,29.94,SSW,205,11.5,11.5,62,0.00,CLR,,0.01,WeatherDisplay:10.37,2017-09-20 17:57:00,
2017-09-20 13:58:00,86.8,72.7,29.94,SW,227,11.5,11.5,63,0.00,CLR,,0.01,WeatherDisplay:10.37,2017-09-20 17:58:00,
2017-09-20 14:03:00,86.5,72.4,29.93,WSW,252,10.0,10.0,63,0.00,CLR,,0.01,WeatherDisplay:10.37,2017-09-20 18:03:00,
2017-09-20 14:08:00,86.2,72.1,29.93,South,175,11.5,11.5,63,0.00,CLR,,0.01,WeatherDisplay:10.37,2017-09-20 18:08:00,
2017-09-20 14:13:00,86.7,72.6,29.93,South,190,10.4,10.4,63,0.00,CLR,,0.01,WeatherDisplay:10.37,2017-09-20 18:13:00,
2017-09-20 14:23:00,87.3,72.7,29.93,South,190,8.1,8.1,62,0.00,CLR,,0.01,WeatherDisplay:10.37,2017-09-20 18:23:00,
2017-09-20 14:28:00,87.4,72.8,29.93,South,178,11.0,11.0,62,0.00,CLR,,0.01,WeatherDisplay:10.37,2017-09-20 18:28:00,
2017-09-20 14:33:00,87.4,72.3,29.93,South,182,10.4,10.4,61,0.00,CLR,,0.01,WeatherDisplay:10.37,2017-09-20 18:33:00,
2017-09-20 14:38:00,87.2,72.6,29.93,SW,229,10.4,10.4,62,0.00,CLR,,0.01,WeatherDisplay:10.37,2017-09-20 18:38:00,
2017-09-20 14:43:00,87.7,72.6,29.93,SW,215,10.4,10.4,61,0.00,CLR,,0.01,WeatherDisplay:10.37,2017-09-20 18:43:00,
2017-09-20 14:48:00,87.2,72.1,29.93,SE,143,5.8,5.8,61,0.00,CLR,,0.01,WeatherDisplay:10.37,2017-09-20 18:48:00,
2017-09-20 14:53:00,87.0,72.4,29.93,SSW,207,10.4,10.4,62,0.00,CLR,,0.01,WeatherDisplay:10.37,2017-09-20 18:53:00,
2017-09-20 14:58:00,87.5,72.4,29.92,ESE,115,10.4,10.4,61,0.00,CLR,,0.01,WeatherDisplay:10.37,2017-09-20 18:58:00,
2017-09-20 15:03:00,87.6,72.0,29.93,SSW,208,8.1,8.1,60,0.00,CLR,,0.01,WeatherDisplay:10.37,2017-09-20 19:03:00,
2017-09-20 15:08:00,87.6,72.0,29.93,SSW,207,8.1,8.1,60,0.00,CLR,,0.01,WeatherDisplay:10.37,2017-09-20 19:08:00,
2017-09-20 15:13:00,87.2,72.1,29.93,SW,224,8.1,8.1,61,0.00,CLR,,0.01,WeatherDisplay:10.37,2017-09-20 19:13:00,
2017-09-20 15:18:00,87.4,71.8,29.93,SSW,207,6.9,6.9,60,0.00,CLR,,0.01,WeatherDisplay:10.37,2017-09-20 19:18:00,
2017-09-20 15:23:00,87.8,72.2,29.93,SSW,205,9.2,9.2,60,0.00,CLR,,0.01,WeatherDisplay:10.37,2017-09-20 19:23:00,
2017-09-20 15:28:00,88.1,72.0,29.93,South,173,6.9,6.9,59,0.00,CLR,,0.01,WeatherDisplay:10.37,2017-09-20 19:28:00,
2017-09-20 15:33:00,88.6,72.4,29.93,SSW,200,5.8,5.8,59,0.00,CLR,,0.01,WeatherDisplay:10.37,2017-09-20 19:33:00,
2017-09-20 15:38:00,89.3,71.5,29.93,SW,216,10.4,10.4,56,0.00,CLR,,0.01,WeatherDisplay:10.37,2017-09-20 19:38:00,
2017-09-20 15:43:00,88.8,70.5,29.93,SSW,200,4.6,4.6,55,0.00,CLR,,0.01,WeatherDisplay:10.37,2017-09-20 19:43:00,
2017-09-20 15:48:00,88.3,70.1,29.93,WSW,258,4.6,4.6,55,0.00,CLR,,0.01,WeatherDisplay:10.37,2017-09-20 19:48:00,
2017-09-20 15:53:00,88.1,70.9,29.93,South,191,8.1,8.1,57,0.00,CLR,,0.01,WeatherDisplay:10.37,2017-09-20 19:53:00,
2017-09-20 15:58:00,88.3,71.1,29.93,South,179,6.9,6.9,57,0.00,CLR,,0.01,WeatherDisplay:10.37,2017-09-20 19:58:00,
2017-09-20 16:03:00,87.9,71.3,29.93,WSW,246,5.8,5.8,58,0.00,CLR,,0.01,WeatherDisplay:10.37,2017-09-20 20:03:00,
2017-09-20 16:08:00,88.3,70.6,29.92,SW,218,3.5,3.5,56,0.00,CLR,,0.01,WeatherDisplay:10.37,2017-09-20 20:08:00,
2017-09-20 16:13:00,89.0,70.7,29.92,SSW,211,9.2,9.2,55,0.00,CLR,,0.01,WeatherDisplay:10.37,2017-09-20 20:13:00,
2017-09-20 16:18:00,88.8,71.1,29.92,South,181,6.9,6.9,56,0.00,CLR,,0.01,WeatherDisplay:10.37,2017-09-20 20:18:00,
2017-09-20 16:23:00,88.7,71.0,29.92,South,174,4.6,4.6,56,0.00,CLR,,0.01,WeatherDisplay:10.37,2017-09-20 20:23:00,
2017-09-20 16:28:00,88.8,70.0,29.92,SSE,155,5.8,5.8,54,0.00,CLR,,0.01,WeatherDisplay:10.37,2017-09-20 20:28:00,
2017-09-20 16:33:00,89.1,71.4,29.92,SSW,209,10.4,10.4,56,0.00,CLR,,0.01,WeatherDisplay:10.37,2017-09-20 20:33:00,
2017-09-20 16:38:00,89.3,71.0,29.92,WSW,241,10.4,10.4,55,0.00,CLR,,0.01,WeatherDisplay:10.37,2017-09-20 20:38:00,
2017-09-20 16:43:00,89.0,70.7,29.92,WSW,243,10.4,10.4,55,0.00,CLR,,0.01,WeatherDisplay:10.37,2017-09-20 20:43:00,
2017-09-20 16:48:00,88.6,70.4,29.92,SSE,152,10.0,10.0,55,0.00,CLR,,0.01,WeatherDisplay:10.37,2017-09-20 20:48:00,
2017-09-20 16:53:00,88.4,71.2,29.92,SW,220,6.9,6.9,57,0.00,CLR,,0.01,WeatherDisplay:10.37,2017-09-20 20:53:00,
2017-09-20 16:58:00,88.6,70.9,29.92,South,180,10.4,10.4,56,0.00,CLR,,0.01,WeatherDisplay:10.37,2017-09-20 20:58:00,
2017-09-20 17:03:00,88.7,71.5,29.92,SW,229,8.1,8.1,57,0.00,CLR,,0.01,WeatherDisplay:10.37,2017-09-20 21:03:00,